»·PEaware :: N5055J KCMA-KSBP

N5055J :: KCMA-KSBP

FLIGHT INFORMATION

Flight Status: Arrived
Operator: Privately registered:
United States
More flights under this callsign
Pilot: Scott M. (16181)
Aircraft: ECLIPSE 500
(EA50)
More flights by this aircraft type
Origin: KCMA Camarillo
United States
Destination: KSBP San Luis Co Regl
United States
More flights between these airports :: More routes between these airports
Route:
File this flight plan on PilotEdge
Remarks:
Altitude:
(Current/Filed)
6,500ft
Speed:
(Current/Filed)
190kts
Departed: 07-Feb-19 05:39 PM
Arrived: 07-Feb-19 06:12 PM
Distance/Time
Traveled:
98nm/0:33
Distance/Time
To Go:
Arrived

Flight Plot

Page will automatically refresh every two minutes.


Map Options




Map Legend


Flown Route
Filed Route
Departure Airport
Arrival Airport
Navaid (VOR, NDB)
Fix

Horizontal Profiles

Position Reports

Time Latitude Longitude Heading Altitude Ground
Speed
07-Feb-19 17:27 34.210350 -119.076489 90 77ft 0kts
07-Feb-19 17:28 34.210350 -119.076489 90 77ft 0kts
07-Feb-19 17:29 34.210350 -119.076489 90 77ft 0kts
07-Feb-19 17:30 34.210350 -119.076489 90 77ft 0kts
07-Feb-19 17:31 34.210350 -119.076489 90 77ft 0kts
07-Feb-19 17:32 34.210355 -119.076429 79 77ft 3kts
07-Feb-19 17:33 34.210860 -119.078038 269 77ft 11kts
07-Feb-19 17:34 34.210915 -119.082839 270 77ft 13kts
07-Feb-19 17:35 34.212019 -119.084622 0 77ft 8kts
07-Feb-19 17:36 34.212776 -119.084619 359 77ft 0kts
07-Feb-19 17:37 34.212942 -119.084620 359 77ft 8kts
07-Feb-19 17:39 34.214371 -119.103591 276 573ft 137kts
07-Feb-19 17:40 34.236486 -119.138116 297 3702ft 151kts
07-Feb-19 17:41 34.259963 -119.196268 297 4688ft 216kts
07-Feb-19 17:42 34.287539 -119.261031 298 5584ft 199kts
07-Feb-19 17:43 34.312187 -119.317749 298 6455ft 191kts
07-Feb-19 17:44 34.339736 -119.380823 298 6500ft 219kts
07-Feb-19 17:45 34.368439 -119.446535 298 6500ft 221kts
07-Feb-19 17:46 34.397334 -119.512752 298 6491ft 221kts
07-Feb-19 17:47 34.426312 -119.579266 298 6491ft 221kts
07-Feb-19 17:48 34.455288 -119.645899 298 6490ft 222kts
07-Feb-19 17:49 34.484183 -119.712476 298 6490ft 220kts
07-Feb-19 17:50 34.514525 -119.777202 316 6492ft 218kts
07-Feb-19 17:51 34.558413 -119.828916 316 6300ft 221kts
07-Feb-19 17:52 34.602869 -119.881539 316 5595ft 222kts
07-Feb-19 17:54 34.686919 -119.981341 316 4491ft 196kts
07-Feb-19 17:55 34.725742 -120.027445 316 4490ft 201kts
07-Feb-19 17:55 34.759951 -120.068244 315 4491ft 207kts
07-Feb-19 17:57 34.808252 -120.126069 315 4491ft 206kts
07-Feb-19 17:58 34.849234 -120.175161 315 4491ft 206kts
07-Feb-19 17:58 34.882728 -120.215236 316 4490ft 193kts
07-Feb-19 17:59 34.920792 -120.260797 315 4490ft 190kts
07-Feb-19 18:00 34.958322 -120.305917 315 4490ft 186kts
07-Feb-19 18:02 35.000443 -120.356561 315 4043ft 175kts
07-Feb-19 18:02 35.029777 -120.391800 315 3455ft 176kts
07-Feb-19 18:03 35.063836 -120.432840 315 2748ft 166kts
07-Feb-19 18:04 35.095749 -120.471222 316 2453ft 150kts
07-Feb-19 18:05 35.123187 -120.504364 317 2042ft 127kts
07-Feb-19 18:06 35.151674 -120.529396 325 1613ft 122kts
07-Feb-19 18:07 35.172669 -120.549977 327 1357ft 95kts
07-Feb-19 18:08 35.195034 -120.571436 320 1632ft 105kts
07-Feb-19 18:09 35.212864 -120.597916 305 1248ft 101kts
07-Feb-19 18:10 35.228657 -120.625978 307 464ft 96kts
07-Feb-19 18:11 35.239513 -120.644155 5 215ft 5kts
07-Feb-19 18:12 35.239793 -120.644076 25 215ft 0kts
07-Feb-19 18:13 35.239501 -120.642918 126 215ft 13kts
07-Feb-19 18:14 35.238781 -120.639284 88 215ft 5kts
07-Feb-19 18:15 35.238782 -120.639224 88 215ft 0kts
07-Feb-19 18:16 35.238782 -120.639224 88 215ft 0kts
07-Feb-19 18:17 35.238782 -120.639224 88 215ft 0kts
07-Feb-19 18:18 35.238782 -120.639224 88 215ft 0kts
07-Feb-19 18:19 35.238782 -120.639224 88 215ft 0kts

Navigation Log

Ident Type
Flight plan parsing failed, navigation log unavailable